createdAt,value
2022-11-18T00:00:55.290Z,6.18
2022-11-18T00:03:21.943Z,6.31
2022-11-18T00:05:55.785Z,6.41
2022-11-18T00:08:25.991Z,6.53
2022-11-18T00:10:52.639Z,6.65
2022-11-18T00:13:37.874Z,6.68
2022-11-18T00:16:05.878Z,6.64
2022-11-18T00:18:32.662Z,6.62
2022-11-18T00:21:03.122Z,6.73
2022-11-18T00:23:29.827Z,6.66
2022-11-18T00:26:01.315Z,6.91
2022-11-18T00:28:27.930Z,6.82
2022-11-18T00:30:59.983Z,6.98
2022-11-18T00:33:26.504Z,7.17
2022-11-18T00:35:53.848Z,7.06
2022-11-18T00:38:20.317Z,7.04
2022-11-18T00:40:46.803Z,6.88
2022-11-18T00:43:13.316Z,6.85
2022-11-18T00:45:39.862Z,6.86
2022-11-18T00:48:06.422Z,6.79
2022-11-18T00:50:33.446Z,6.87
2022-11-18T00:52:59.989Z,6.61
2022-11-18T00:55:26.431Z,6.80
2022-11-18T00:57:53.573Z,6.90
2022-11-18T01:00:20.108Z,6.95
2022-11-18T01:02:46.778Z,7.20
2022-11-18T01:05:13.240Z,7.22
2022-11-18T01:07:39.829Z,7.02
2022-11-18T01:10:06.426Z,7.07
2022-11-18T01:12:54.329Z,7.09
2022-11-18T01:15:21.234Z,7.01
2022-11-18T01:17:47.665Z,7.22
2022-11-18T01:20:15.439Z,7.13
2022-11-18T01:22:41.922Z,7.12
2022-11-18T01:25:08.732Z,7.14
2022-11-18T01:27:35.221Z,7.04
2022-11-18T01:30:01.752Z,6.88
2022-11-18T01:32:28.654Z,7.17
2022-11-18T01:34:55.130Z,7.20
2022-11-18T01:37:21.593Z,7.17
2022-11-18T01:39:48.160Z,7.23
2022-11-18T01:42:17.861Z,7.22
2022-11-18T01:44:57.096Z,6.88
2022-11-18T01:47:24.645Z,6.80
2022-11-18T01:49:51.214Z,6.89
2022-11-18T01:52:17.806Z,6.61
2022-11-18T01:54:48.196Z,6.80
2022-11-18T01:57:19.551Z,6.71
2022-11-18T01:59:48.402Z,6.65
2022-11-18T02:02:14.933Z,6.66
2022-11-18T02:04:44.201Z,6.80
2022-11-18T02:07:11.489Z,6.79
2022-11-18T02:09:38.357Z,6.79
2022-11-18T02:12:05.129Z,6.80
2022-11-18T02:14:36.027Z,6.78
2022-11-18T02:17:11.707Z,6.86
2022-11-18T02:19:47.254Z,6.76
2022-11-18T02:22:16.887Z,6.80
2022-11-18T02:24:43.532Z,6.96
2022-11-18T02:27:28.102Z,6.65
2022-11-18T02:29:57.878Z,6.53
2022-11-18T02:32:33.238Z,6.63
2022-11-18T02:35:06.573Z,6.72
2022-11-18T02:37:43.282Z,6.89
2022-11-18T02:40:16.575Z,6.75
2022-11-18T02:42:45.095Z,6.78
2022-11-18T02:45:15.227Z,6.85
2022-11-18T02:47:43.273Z,6.80
2022-11-18T02:50:11.722Z,6.85
2022-11-18T02:52:39.318Z,6.86
2022-11-18T02:55:07.724Z,6.96
2022-11-18T02:57:35.437Z,7.01
2022-11-18T03:00:01.936Z,6.89
2022-11-18T03:02:28.776Z,6.77
2022-11-18T03:04:57.270Z,6.72
2022-11-18T03:07:31.341Z,6.87
2022-11-18T03:09:59.678Z,6.91
2022-11-18T03:12:29.279Z,6.68
2022-11-18T03:14:55.730Z,6.62
2022-11-18T03:17:41.148Z,6.50
2022-11-18T03:20:16.017Z,6.49
2022-11-18T03:22:45.811Z,6.67
2022-11-18T03:25:18.595Z,6.76
2022-11-18T03:27:45.067Z,6.73
2022-11-18T03:30:13.312Z,6.84
2022-11-18T03:32:42.907Z,6.81
2022-11-18T03:35:15.849Z,6.83
2022-11-18T03:37:44.876Z,6.90
2022-11-18T03:40:15.360Z,7.02
2022-11-18T03:42:43.974Z,7.07
2022-11-18T03:45:14.140Z,7.03
2022-11-18T03:47:42.424Z,7.20
2022-11-18T03:50:14.874Z,7.20
2022-11-18T03:52:42.000Z,7.19
2022-11-18T03:55:15.910Z,7.03
2022-11-18T03:57:54.531Z,7.11
2022-11-18T04:00:21.367Z,7.13
2022-11-18T04:02:50.394Z,7.27
2022-11-18T04:05:18.203Z,7.25
2022-11-18T04:07:44.726Z,7.01
2022-11-18T04:10:17.033Z,7.10
2022-11-18T04:12:46.011Z,7.22
2022-11-18T04:15:12.725Z,7.09
2022-11-18T04:17:40.685Z,6.73
2022-11-18T04:20:07.424Z,7.01
2022-11-18T04:22:33.973Z,7.13
2022-11-18T04:25:00.467Z,7.38
2022-11-18T04:27:26.967Z,7.29
2022-11-18T04:29:53.429Z,7.19
2022-11-18T04:32:19.912Z,7.33
2022-11-18T04:34:46.383Z,7.13
2022-11-18T04:37:12.970Z,7.13
2022-11-18T04:39:39.422Z,7.26
2022-11-18T04:42:06.114Z,7.12
2022-11-18T04:44:33.430Z,7.14
2022-11-18T04:47:01.466Z,7.13
2022-11-18T04:49:28.326Z,7.05
2022-11-18T04:51:55.497Z,6.96
2022-11-18T04:54:22.802Z,6.93
2022-11-18T04:56:50.015Z,6.75
2022-11-18T04:59:24.100Z,6.77
2022-11-18T05:01:50.716Z,6.74
2022-11-18T05:04:18.685Z,6.74
2022-11-18T05:06:45.637Z,6.50
2022-11-18T05:09:12.599Z,6.64
2022-11-18T05:11:57.727Z,6.77
2022-11-18T05:14:28.099Z,6.47
2022-11-18T05:16:55.097Z,6.44
2022-11-18T05:19:23.795Z,6.40
2022-11-18T05:21:50.310Z,6.48
2022-11-18T05:24:17.119Z,6.61
2022-11-18T05:26:43.722Z,6.49
2022-11-18T05:29:10.438Z,6.39
2022-11-18T05:31:37.261Z,6.44
2022-11-18T05:34:03.799Z,6.33
2022-11-18T05:36:30.533Z,6.38
2022-11-18T05:39:00.560Z,6.57
2022-11-18T05:41:45.803Z,6.55
2022-11-18T05:44:12.565Z,6.60
2022-11-18T05:46:39.237Z,6.61
2022-11-18T05:49:05.736Z,6.43
2022-11-18T05:51:32.280Z,6.49
2022-11-18T05:53:58.837Z,6.33
2022-11-18T05:56:28.137Z,6.25
2022-11-18T05:58:54.795Z,6.19
2022-11-18T06:01:38.314Z,6.29
2022-11-18T06:04:09.439Z,6.35
2022-11-18T06:06:36.423Z,6.51
2022-11-18T06:09:04.673Z,6.47
2022-11-18T06:11:32.469Z,6.33
2022-11-18T06:14:05.710Z,6.38
2022-11-18T06:16:39.474Z,6.42
2022-11-18T06:19:07.369Z,6.44
2022-11-18T06:21:33.929Z,6.26
2022-11-18T06:24:00.770Z,6.39
2022-11-18T06:26:27.364Z,6.54
2022-11-18T06:28:55.870Z,6.56
2022-11-18T06:31:22.375Z,6.54
2022-11-18T06:33:48.939Z,6.72
2022-11-18T06:36:15.439Z,6.79
2022-11-18T06:38:41.939Z,6.80
2022-11-18T06:41:08.419Z,6.81
2022-11-18T06:43:44.164Z,6.80
2022-11-18T06:46:31.321Z,6.78
2022-11-18T06:48:58.132Z,6.96
2022-11-18T06:51:24.738Z,6.95
2022-11-18T06:53:51.574Z,6.99
2022-11-18T06:56:19.138Z,6.91
2022-11-18T06:58:45.854Z,6.94
2022-11-18T07:01:13.733Z,6.90
2022-11-18T07:03:40.970Z,6.87
2022-11-18T07:06:08.067Z,6.96
2022-11-18T07:08:35.886Z,7.56
2022-11-18T07:11:02.501Z,7.47
2022-11-18T07:13:29.055Z,7.06
2022-11-18T07:15:55.578Z,6.78
2022-11-18T07:18:22.071Z,6.97
2022-11-18T07:20:48.568Z,7.15
2022-11-18T07:23:15.056Z,6.92
2022-11-18T07:25:45.270Z,7.04
2022-11-18T07:28:12.045Z,7.23
2022-11-18T07:30:38.555Z,7.26
2022-11-18T07:33:05.110Z,7.35
2022-11-18T07:35:31.574Z,7.47
2022-11-18T07:37:58.116Z,7.62
2022-11-18T07:40:24.913Z,7.62
2022-11-18T07:42:51.474Z,7.66
2022-11-18T07:45:24.332Z,7.79
2022-11-18T07:47:50.848Z,7.82
2022-11-18T07:50:18.218Z,7.97
2022-11-18T07:52:44.776Z,7.82
2022-11-18T07:55:11.242Z,7.72
2022-11-18T07:57:37.710Z,8.03
2022-11-18T08:00:04.741Z,7.97
2022-11-18T08:02:38.579Z,8.18
2022-11-18T08:05:05.373Z,8.09
2022-11-18T08:07:32.022Z,7.89
2022-11-18T08:09:58.543Z,8.17
2022-11-18T08:12:25.006Z,8.23
2022-11-18T08:14:51.623Z,8.07
2022-11-18T08:17:18.330Z,8.12
2022-11-18T08:19:45.213Z,8.38
2022-11-18T08:22:11.722Z,8.44
2022-11-18T08:24:38.219Z,8.32
2022-11-18T08:27:04.678Z,8.24
2022-11-18T08:29:31.137Z,8.20
2022-11-18T08:31:57.582Z,8.24
2022-11-18T08:34:24.030Z,8.10
2022-11-18T08:36:50.497Z,8.12
2022-11-18T08:39:17.195Z,8.07
2022-11-18T08:41:43.976Z,8.19
2022-11-18T08:44:12.021Z,8.21
2022-11-18T08:46:38.719Z,8.21
2022-11-18T08:49:05.690Z,7.72
2022-11-18T08:51:32.442Z,7.65
2022-11-18T08:53:59.016Z,7.82
2022-11-18T08:56:25.577Z,7.73
2022-11-18T08:58:52.506Z,7.79
2022-11-18T09:01:19.173Z,7.96
2022-11-18T09:03:45.797Z,8.21
2022-11-18T09:06:20.110Z,8.26
2022-11-18T09:08:46.854Z,8.24
2022-11-18T09:11:17.403Z,8.11
2022-11-18T09:14:09.986Z,7.85
2022-11-18T09:16:32.342Z,7.94
2022-11-18T09:19:04.949Z,7.92
2022-11-18T09:21:44.936Z,7.82
2022-11-18T09:24:11.677Z,7.83
2022-11-18T09:26:38.339Z,7.82
2022-11-18T09:29:05.257Z,8.04
2022-11-18T09:31:31.793Z,8.19
2022-11-18T09:34:01.513Z,7.85
2022-11-18T09:36:28.058Z,8.01
2022-11-18T09:38:54.562Z,8.29
2022-11-18T09:41:27.249Z,8.40
2022-11-18T09:43:53.725Z,8.37
2022-11-18T09:46:38.895Z,8.37
2022-11-18T09:49:15.393Z,8.27
2022-11-18T09:51:46.957Z,8.10
2022-11-18T09:54:24.679Z,8.04
2022-11-18T09:56:53.239Z,8.15
2022-11-18T09:59:21.131Z,7.86
2022-11-18T10:01:48.728Z,7.78
2022-11-18T10:04:16.639Z,7.95
2022-11-18T10:06:43.854Z,7.93
2022-11-18T10:09:28.673Z,7.80
2022-11-18T10:12:04.595Z,7.75
2022-11-18T10:14:37.376Z,7.78
2022-11-18T10:17:19.197Z,7.69
2022-11-18T10:20:04.460Z,7.69
2022-11-18T10:22:31.074Z,7.94
2022-11-18T10:24:58.446Z,7.88
2022-11-18T10:27:27.045Z,8.04
2022-11-18T10:29:57.560Z,8.09
2022-11-18T10:32:24.256Z,8.14
2022-11-18T10:34:54.852Z,8.21
2022-11-18T10:37:34.456Z,8.11
2022-11-18T10:40:22.821Z,8.12
2022-11-18T10:42:49.371Z,8.14
2022-11-18T10:45:17.542Z,7.72
2022-11-18T10:47:44.141Z,7.51
2022-11-18T10:50:29.299Z,7.42
2022-11-18T10:52:55.851Z,7.62
2022-11-18T10:55:24.121Z,7.68
2022-11-18T10:57:53.790Z,7.81
2022-11-18T11:00:40.038Z,7.92
2022-11-18T11:03:22.037Z,8.32
2022-11-18T11:05:48.823Z,8.56
2022-11-18T11:08:36.253Z,8.47
2022-11-18T11:11:04.116Z,8.46
2022-11-18T11:13:31.465Z,8.52
2022-11-18T11:16:01.176Z,8.69
2022-11-18T11:18:41.725Z,8.68
2022-11-18T11:21:12.579Z,8.48
2022-11-18T11:23:39.286Z,8.50
2022-11-18T11:29:05.827Z,8.55
2022-11-18T11:31:41.488Z,8.47
2022-11-18T11:34:15.591Z,8.46
2022-11-18T11:36:42.409Z,8.70
2022-11-18T11:39:14.032Z,8.89
2022-11-18T11:41:59.858Z,8.59
2022-11-18T11:44:41.562Z,8.64
2022-11-18T11:47:43.448Z,8.51
2022-11-18T11:50:17.732Z,8.73
2022-11-18T11:53:07.772Z,9.18
2022-11-18T11:55:34.218Z,9.46
2022-11-18T11:58:16.343Z,9.64
2022-11-18T12:00:49.485Z,9.50
2022-11-18T12:03:27.394Z,9.71
2022-11-18T12:05:53.858Z,9.72
2022-11-18T12:08:22.717Z,9.89
2022-11-18T12:11:07.829Z,9.91
2022-11-18T12:13:51.891Z,10.01
2022-11-18T12:16:44.588Z,10.05
2022-11-18T12:19:16.482Z,9.61
2022-11-18T12:21:46.356Z,9.38
2022-11-18T12:24:31.025Z,9.80
2022-11-18T12:26:59.480Z,9.69
2022-11-18T12:29:35.149Z,9.86
2022-11-18T12:32:04.647Z,10.50
2022-11-18T12:34:32.826Z,10.39
2022-11-18T12:37:19.255Z,10.13
2022-11-18T12:39:47.876Z,9.50
2022-11-18T12:42:55.777Z,9.98
2022-11-18T12:45:47.256Z,10.01
2022-11-18T12:48:32.554Z,9.82
2022-11-18T12:51:00.998Z,10.05
2022-11-18T12:53:39.203Z,10.10
2022-11-18T12:56:11.883Z,10.20
2022-11-18T12:58:38.457Z,9.96
2022-11-18T13:01:10.481Z,10.01
2022-11-18T13:03:37.075Z,9.76
2022-11-18T13:06:12.651Z,10.02
2022-11-18T13:08:39.733Z,10.25
2022-11-18T13:11:33.059Z,10.10
2022-11-18T13:14:18.302Z,9.75
2022-11-18T13:17:03.290Z,10.02
2022-11-18T13:19:29.757Z,9.84
2022-11-18T13:22:15.518Z,9.86
2022-11-18T13:24:46.531Z,9.58
2022-11-18T13:27:27.672Z,9.75
2022-11-18T13:30:10.524Z,9.31
2022-11-18T13:32:42.270Z,9.11
2022-11-18T13:35:19.474Z,8.87
2022-11-18T13:37:53.504Z,9.45
2022-11-18T13:40:25.014Z,9.33
2022-11-18T13:42:51.651Z,9.27
2022-11-18T13:45:18.192Z,9.46
2022-11-18T13:47:50.740Z,9.33
2022-11-18T13:50:22.674Z,9.27
2022-11-18T13:53:01.332Z,9.32
2022-11-18T13:55:29.366Z,9.30
2022-11-18T13:58:01.212Z,9.38
2022-11-18T14:00:28.734Z,9.53
2022-11-18T14:02:57.838Z,9.48
2022-11-18T14:05:24.957Z,9.35
2022-11-18T14:08:02.139Z,9.53
2022-11-18T14:10:44.573Z,9.57
2022-11-18T14:13:17.448Z,9.67
2022-11-18T14:15:44.631Z,9.85
2022-11-18T14:18:18.137Z,9.90
2022-11-18T14:20:49.750Z,10.12
2022-11-18T14:23:16.906Z,9.93
2022-11-18T14:25:44.873Z,9.81
2022-11-18T14:28:13.268Z,9.90
2022-11-18T14:30:41.671Z,10.23
2022-11-18T14:33:15.570Z,10.10
2022-11-18T14:35:49.071Z,9.86
2022-11-18T14:41:04.683Z,9.76
2022-11-18T14:43:31.395Z,10.05
2022-11-18T14:46:12.314Z,9.84
2022-11-18T14:48:38.872Z,9.72
2022-11-18T14:51:05.344Z,9.94
2022-11-18T14:53:31.804Z,9.82
2022-11-18T14:55:59.736Z,9.85
2022-11-18T14:58:26.417Z,9.41
2022-11-18T15:00:53.302Z,9.50
2022-11-18T15:03:19.915Z,9.56
2022-11-18T15:05:46.396Z,9.47
2022-11-18T15:08:13.593Z,9.40
2022-11-18T15:10:40.153Z,9.54
2022-11-18T15:13:06.937Z,9.63
2022-11-18T15:15:33.416Z,9.53
2022-11-18T15:17:59.882Z,9.56
2022-11-18T15:20:26.546Z,9.51
2022-11-18T15:22:53.104Z,9.49
2022-11-18T15:25:19.520Z,9.34
2022-11-18T15:27:46.052Z,9.27
2022-11-18T15:30:13.678Z,9.18
2022-11-18T15:32:40.572Z,9.17
2022-11-18T15:35:07.205Z,9.01
2022-11-18T15:37:33.655Z,8.98
2022-11-18T15:40:00.116Z,8.88
2022-11-18T15:42:26.568Z,8.96
2022-11-18T15:44:53.065Z,9.03
2022-11-18T15:47:19.558Z,8.79
2022-11-18T15:49:46.001Z,8.67
2022-11-18T15:52:13.074Z,8.72
2022-11-18T15:54:39.596Z,8.69
2022-11-18T15:57:06.005Z,8.73
2022-11-18T15:59:32.489Z,8.72
2022-11-18T16:01:59.112Z,8.74
2022-11-18T16:04:25.628Z,8.81
2022-11-18T16:06:52.108Z,9.04
2022-11-18T16:09:19.038Z,8.81
2022-11-18T16:12:04.260Z,8.67
2022-11-18T16:14:30.781Z,8.60
2022-11-18T16:16:57.500Z,8.55
2022-11-18T16:19:25.121Z,8.54
2022-11-18T16:21:52.965Z,8.61
2022-11-18T16:24:28.940Z,8.50
2022-11-18T16:26:55.886Z,8.53
2022-11-18T16:29:23.099Z,8.78
2022-11-18T16:31:52.117Z,8.74
2022-11-18T16:34:25.875Z,8.68
2022-11-18T16:36:53.453Z,8.89
2022-11-18T16:39:24.097Z,8.89
2022-11-18T16:41:51.472Z,8.97
2022-11-18T16:44:18.573Z,8.85
2022-11-18T16:46:49.424Z,8.78
2022-11-18T16:49:17.232Z,8.84
2022-11-18T16:51:45.020Z,8.98
2022-11-18T16:54:18.771Z,8.96
2022-11-18T16:56:45.805Z,8.90
2022-11-18T16:59:17.312Z,8.99
2022-11-18T17:01:44.530Z,9.13
2022-11-18T17:04:11.792Z,9.09
2022-11-18T17:06:39.079Z,8.97
2022-11-18T17:09:05.882Z,8.78
2022-11-18T17:11:32.847Z,8.87
2022-11-18T17:13:59.394Z,8.78
2022-11-18T17:16:25.935Z,8.82
2022-11-18T17:18:56.220Z,8.90
2022-11-18T17:21:22.762Z,8.76
2022-11-18T17:23:49.642Z,8.63
2022-11-18T17:26:17.668Z,8.62
2022-11-18T17:28:44.280Z,8.66
2022-11-18T17:31:12.231Z,8.66
2022-11-18T17:33:39.143Z,8.65
2022-11-18T17:36:10.143Z,8.77
2022-11-18T17:38:37.544Z,8.69
2022-11-18T17:41:04.328Z,8.69
2022-11-18T17:43:30.791Z,8.42
2022-11-18T17:45:58.233Z,8.42
2022-11-18T17:48:25.555Z,8.40
2022-11-18T17:50:52.211Z,8.37
2022-11-18T17:53:19.300Z,8.21
2022-11-18T17:55:46.236Z,8.43
2022-11-18T17:58:12.798Z,8.40
2022-11-18T18:00:40.067Z,8.56
2022-11-18T18:03:06.616Z,8.33
2022-11-18T18:05:33.092Z,8.51
2022-11-18T18:07:59.568Z,8.45
2022-11-18T18:10:26.221Z,8.52
2022-11-18T18:13:11.000Z,8.33
2022-11-18T18:15:37.539Z,8.11
2022-11-18T18:18:04.279Z,8.21
2022-11-18T18:20:30.810Z,8.18
2022-11-18T18:22:57.272Z,8.26
2022-11-18T18:25:23.740Z,8.14
2022-11-18T18:27:50.302Z,8.14
2022-11-18T18:30:17.016Z,8.07
2022-11-18T18:32:45.903Z,8.02
2022-11-18T18:35:16.066Z,8.02
2022-11-18T18:37:42.596Z,7.98
2022-11-18T18:40:09.266Z,7.92
2022-11-18T18:42:35.721Z,7.73
2022-11-18T18:45:21.098Z,7.64
2022-11-18T18:47:47.719Z,7.59
2022-11-18T18:50:14.224Z,7.62
2022-11-18T18:52:40.661Z,7.57
2022-11-18T18:55:07.474Z,7.52
2022-11-18T18:57:33.904Z,7.48
2022-11-18T19:00:00.397Z,7.42
2022-11-18T19:02:26.962Z,7.41
2022-11-18T19:04:53.613Z,7.36
2022-11-18T19:07:20.223Z,7.41
2022-11-18T19:09:46.753Z,7.45
2022-11-18T19:12:31.997Z,7.31
2022-11-18T19:14:58.463Z,7.21
2022-11-18T19:17:25.039Z,7.36
2022-11-18T19:20:10.069Z,7.37
2022-11-18T19:22:36.723Z,7.43
2022-11-18T19:25:03.312Z,7.52
2022-11-18T19:27:29.835Z,7.58
2022-11-18T19:29:56.272Z,7.69
2022-11-18T19:32:23.344Z,7.65
2022-11-18T19:34:49.796Z,7.81
2022-11-18T19:37:16.316Z,7.79
2022-11-18T19:39:42.844Z,7.71
2022-11-18T19:42:10.870Z,7.69
2022-11-18T19:44:37.873Z,7.83
2022-11-18T19:47:04.334Z,7.73
2022-11-18T19:49:30.859Z,7.77
2022-11-18T19:51:57.289Z,7.77
2022-11-18T19:54:23.725Z,7.71
2022-11-18T19:56:50.200Z,7.77
2022-11-18T19:59:16.920Z,7.73
2022-11-18T20:01:43.781Z,7.80
2022-11-18T20:04:10.347Z,7.75
2022-11-18T20:06:37.484Z,7.73
2022-11-18T20:09:06.984Z,7.71
2022-11-18T20:11:33.474Z,7.89
2022-11-18T20:13:59.887Z,7.90
2022-11-18T20:16:26.408Z,8.05
2022-11-18T20:19:06.553Z,8.11
2022-11-18T20:21:35.917Z,8.16
2022-11-18T20:24:03.626Z,8.20
2022-11-18T20:26:35.240Z,8.16
2022-11-18T20:29:02.205Z,8.18
2022-11-18T20:31:28.759Z,8.14
2022-11-18T20:33:56.560Z,8.19
2022-11-18T20:36:24.408Z,8.32
2022-11-18T20:38:51.843Z,8.57
2022-11-18T20:41:18.897Z,8.19
2022-11-18T20:43:45.772Z,8.37
2022-11-18T20:46:17.286Z,8.23
2022-11-18T20:48:46.803Z,8.20
2022-11-18T20:51:14.547Z,8.22
2022-11-18T20:53:42.330Z,8.33
2022-11-18T20:56:11.003Z,8.33
2022-11-18T20:58:37.535Z,8.40
2022-11-18T21:01:09.855Z,8.31
2022-11-18T21:03:37.165Z,8.29
2022-11-18T21:06:13.491Z,8.33
2022-11-18T21:08:41.334Z,8.34
2022-11-18T21:11:09.001Z,8.15
2022-11-18T21:13:54.389Z,8.63
2022-11-18T21:16:21.219Z,8.63
2022-11-18T21:18:48.234Z,8.59
2022-11-18T21:21:33.529Z,8.28
2022-11-18T21:24:00.973Z,8.13
2022-11-18T21:26:28.495Z,8.37
2022-11-18T21:28:56.485Z,8.20
2022-11-18T21:31:23.896Z,8.06
2022-11-18T21:33:51.106Z,8.07
2022-11-18T21:36:17.883Z,7.99
2022-11-18T21:38:44.568Z,8.51
2022-11-18T21:41:11.237Z,8.35
2022-11-18T21:46:26.021Z,8.17
2022-11-18T21:48:58.634Z,7.94
2022-11-18T21:51:26.692Z,7.75
2022-11-18T21:53:53.229Z,7.78
2022-11-18T21:56:21.416Z,7.96
2022-11-18T21:58:51.245Z,7.98
2022-11-18T22:01:19.250Z,7.78
2022-11-18T22:03:53.721Z,7.90
2022-11-18T22:06:21.789Z,7.89
2022-11-18T22:08:48.363Z,7.95
2022-11-18T22:11:15.412Z,8.03
2022-11-18T22:13:42.194Z,8.00
2022-11-18T22:16:12.922Z,7.89
2022-11-18T22:18:40.626Z,7.73
2022-11-18T22:21:08.307Z,8.00
2022-11-18T22:23:34.767Z,7.96
2022-11-18T22:26:04.443Z,7.99
2022-11-18T22:28:30.925Z,8.04
2022-11-18T22:31:03.945Z,8.64
2022-11-18T22:33:31.024Z,8.30
2022-11-18T22:36:01.499Z,8.17
2022-11-18T22:38:28.584Z,8.22
2022-11-18T22:40:58.943Z,8.15
2022-11-18T22:43:25.415Z,8.05
2022-11-18T22:45:58.549Z,8.17
2022-11-18T22:48:24.985Z,8.18
2022-11-18T22:51:01.902Z,8.25
2022-11-18T22:53:28.939Z,8.26
2022-11-18T22:56:01.954Z,8.24
2022-11-18T22:58:28.550Z,8.34
2022-11-18T23:00:55.042Z,8.54
2022-11-18T23:03:23.200Z,8.19
2022-11-18T23:05:50.093Z,8.24
2022-11-18T23:08:16.631Z,8.06
2022-11-18T23:10:43.161Z,8.24
2022-11-18T23:13:28.732Z,7.81
2022-11-18T23:16:01.173Z,7.79
2022-11-18T23:18:28.475Z,8.05
2022-11-18T23:21:01.943Z,7.90
2022-11-18T23:23:29.200Z,8.01
2022-11-18T23:26:02.017Z,7.99
2022-11-18T23:28:28.473Z,8.39
2022-11-18T23:31:02.931Z,8.67
2022-11-18T23:33:29.351Z,8.46
2022-11-18T23:35:55.806Z,8.18
2022-11-18T23:38:22.249Z,7.93
2022-11-18T23:40:53.919Z,7.56
2022-11-18T23:43:20.392Z,7.42
2022-11-18T23:45:46.869Z,7.15
2022-11-18T23:48:13.293Z,7.32
2022-11-18T23:50:39.741Z,7.39
2022-11-18T23:53:06.157Z,7.27
2022-11-18T23:55:32.618Z,7.27
2022-11-18T23:57:59.097Z,7.25
